sensor_id;sensor_type;location;lat;lon;timestamp;temperature;humidity
7212;DHT22;3647;48.792;9.802;2023-03-12T06:43:28;2.10;99.90
7212;DHT22;3647;48.792;9.802;2023-03-12T06:45:57;0.50;99.90
7212;DHT22;3647;48.792;9.802;2023-03-12T06:48:25;0.50;99.90
7212;DHT22;3647;48.792;9.802;2023-03-12T06:50:53;0.60;99.90
7212;DHT22;3647;48.792;9.802;2023-03-12T06:53:20;0.60;99.90
7212;DHT22;3647;48.792;9.802;2023-03-12T06:55:49;0.70;99.90
7212;DHT22;3647;48.792;9.802;2023-03-12T06:58:16;2.30;99.90
7212;DHT22;3647;48.792;9.802;2023-03-12T07:00:44;1.90;99.90
7212;DHT22;3647;48.792;9.802;2023-03-12T07:03:11;0.80;99.90
7212;DHT22;3647;48.792;9.802;2023-03-12T07:05:38;1.50;99.90
7212;DHT22;3647;48.792;9.802;2023-03-12T07:08:05;1.10;99.90
7212;DHT22;3647;48.792;9.802;2023-03-12T07:10:31;1.10;99.90
7212;DHT22;3647;48.792;9.802;2023-03-12T07:12:58;1.10;99.90
7212;DHT22;3647;48.792;9.802;2023-03-12T07:15:25;1.20;99.90
7212;DHT22;3647;48.792;9.802;2023-03-12T07:17:53;1.30;99.90
7212;DHT22;3647;48.792;9.802;2023-03-12T07:20:20;1.30;99.90
7212;DHT22;3647;48.792;9.802;2023-03-12T07:22:47;1.40;99.90
7212;DHT22;3647;48.792;9.802;2023-03-12T07:25:14;1.40;99.90
7212;DHT22;3647;48.792;9.802;2023-03-12T07:27:41;1.50;99.90
7212;DHT22;3647;48.792;9.802;2023-03-12T07:30:09;1.50;99.90
7212;DHT22;3647;48.792;9.802;2023-03-12T07:32:35;1.60;99.90
7212;DHT22;3647;48.792;9.802;2023-03-12T07:35:04;2.20;99.90
7212;DHT22;3647;48.792;9.802;2023-03-12T07:37:31;1.80;99.90
7212;DHT22;3647;48.792;9.802;2023-03-12T07:40:01;1.80;99.90
7212;DHT22;3647;48.792;9.802;2023-03-12T07:42:29;1.80;99.90
7212;DHT22;3647;48.792;9.802;2023-03-12T07:44:56;1.90;99.90
7212;DHT22;3647;48.792;9.802;2023-03-12T07:47:23;1.90;99.90
7212;DHT22;3647;48.792;9.802;2023-03-12T07:49:50;1.90;99.90
7212;DHT22;3647;48.792;9.802;2023-03-12T07:52:18;2.00;99.90
7212;DHT22;3647;48.792;9.802;2023-03-12T07:54:45;2.00;99.90
7212;DHT22;3647;48.792;9.802;2023-03-12T07:57:12;2.00;99.90
7212;DHT22;3647;48.792;9.802;2023-03-12T07:59:38;1.90;99.90
7212;DHT22;3647;48.792;9.802;2023-03-12T08:02:05;1.90;99.90
7212;DHT22;3647;48.792;9.802;2023-03-12T08:04:34;1.90;99.90
7212;DHT22;3647;48.792;9.802;2023-03-12T08:07:01;2.00;99.90
7212;DHT22;3647;48.792;9.802;2023-03-12T08:09:29;2.00;99.90
7212;DHT22;3647;48.792;9.802;2023-03-12T08:11:57;2.10;99.90
7212;DHT22;3647;48.792;9.802;2023-03-12T08:14:24;2.20;99.90
7212;DHT22;3647;48.792;9.802;2023-03-12T08:16:51;2.20;99.90
7212;DHT22;3647;48.792;9.802;2023-03-12T08:19:17;2.30;99.90
7212;DHT22;3647;48.792;9.802;2023-03-12T08:21:44;2.40;99.90
7212;DHT22;3647;48.792;9.802;2023-03-12T08:24:11;2.50;99.90
7212;DHT22;3647;48.792;9.802;2023-03-12T08:26:39;2.60;99.90
7212;DHT22;3647;48.792;9.802;2023-03-12T08:29:06;2.60;99.90
7212;DHT22;3647;48.792;9.802;2023-03-12T08:31:32;2.70;99.90
7212;DHT22;3647;48.792;9.802;2023-03-12T08:33:59;2.80;99.90
7212;DHT22;3647;48.792;9.802;2023-03-12T08:36:26;2.90;99.90
7212;DHT22;3647;48.792;9.802;2023-03-12T08:38:53;2.90;99.90
7212;DHT22;3647;48.792;9.802;2023-03-12T08:41:19;2.90;99.90
7212;DHT22;3647;48.792;9.802;2023-03-12T08:43:48;3.00;99.90
7212;DHT22;3647;48.792;9.802;2023-03-12T08:46:14;3.50;99.90
7212;DHT22;3647;48.792;9.802;2023-03-12T08:48:41;3.20;99.90
7212;DHT22;3647;48.792;9.802;2023-03-12T08:51:08;3.30;99.90
7212;DHT22;3647;48.792;9.802;2023-03-12T08:53:35;3.20;99.90
7212;DHT22;3647;48.792;9.802;2023-03-12T08:56:03;3.30;99.90
7212;DHT22;3647;48.792;9.802;2023-03-12T08:58:30;3.60;99.90
7212;DHT22;3647;48.792;9.802;2023-03-12T09:00:59;3.40;99.90
7212;DHT22;3647;48.792;9.802;2023-03-12T09:03:26;3.40;99.90
7212;DHT22;3647;48.792;9.802;2023-03-12T09:06:03;3.40;99.90
7212;DHT22;3647;48.792;9.802;2023-03-12T09:08:29;3.40;99.90
7212;DHT22;3647;48.792;9.802;2023-03-12T09:10:58;3.40;99.90
7212;DHT22;3647;48.792;9.802;2023-03-12T09:13:26;3.50;99.90
7212;DHT22;3647;48.792;9.802;2023-03-12T09:15:59;3.70;99.90
7212;DHT22;3647;48.792;9.802;2023-03-12T09:18:26;3.80;99.90
7212;DHT22;3647;48.792;9.802;2023-03-12T09:20:53;4.10;99.90
7212;DHT22;3647;48.792;9.802;2023-03-12T09:23:20;3.90;99.90
7212;DHT22;3647;48.792;9.802;2023-03-12T09:25:47;4.20;99.90
7212;DHT22;3647;48.792;9.802;2023-03-12T09:28:14;4.10;99.90
7212;DHT22;3647;48.792;9.802;2023-03-12T09:30:41;4.20;99.90
7212;DHT22;3647;48.792;9.802;2023-03-12T09:33:10;4.30;99.90
7212;DHT22;3647;48.792;9.802;2023-03-12T09:35:37;4.30;99.90
7212;DHT22;3647;48.792;9.802;2023-03-12T09:38:04;4.40;99.90
7212;DHT22;3647;48.792;9.802;2023-03-12T09:40:33;4.40;99.90
7212;DHT22;3647;48.792;9.802;2023-03-12T09:43:04;4.50;99.90
7212;DHT22;3647;48.792;9.802;2023-03-12T09:45:36;4.60;99.90
7212;DHT22;3647;48.792;9.802;2023-03-12T09:48:05;4.60;99.90
7212;DHT22;3647;48.792;9.802;2023-03-12T09:50:36;4.70;99.90
7212;DHT22;3647;48.792;9.802;2023-03-12T09:53:10;4.80;99.90
7212;DHT22;3647;48.792;9.802;2023-03-12T09:55:39;6.00;99.90
7212;DHT22;3647;48.792;9.802;2023-03-12T09:58:12;5.00;99.90
7212;DHT22;3647;48.792;9.802;2023-03-12T10:00:39;5.00;99.90
7212;DHT22;3647;48.792;9.802;2023-03-12T10:03:18;5.00;99.90
7212;DHT22;3647;48.792;9.802;2023-03-12T10:05:59;5.00;99.90
7212;DHT22;3647;48.792;9.802;2023-03-12T10:08:35;5.00;99.90
7212;DHT22;3647;48.792;9.802;2023-03-12T10:11:13;5.00;99.90
7212;DHT22;3647;48.792;9.802;2023-03-12T10:13:54;5.70;99.90
7212;DHT22;3647;48.792;9.802;2023-03-12T10:16:43;5.80;99.90
7212;DHT22;3647;48.792;9.802;2023-03-12T10:19:22;5.80;99.90
7212;DHT22;3647;48.792;9.802;2023-03-12T10:21:57;5.30;99.90
7212;DHT22;3647;48.792;9.802;2023-03-12T10:24:35;5.50;99.90
7212;DHT22;3647;48.792;9.802;2023-03-12T10:27:11;5.60;99.90
7212;DHT22;3647;48.792;9.802;2023-03-12T10:29:41;5.70;99.90
7212;DHT22;3647;48.792;9.802;2023-03-12T10:32:14;5.70;99.90
7212;DHT22;3647;48.792;9.802;2023-03-12T10:34:44;6.10;99.90
7212;DHT22;3647;48.792;9.802;2023-03-12T10:37:16;5.90;99.90
7212;DHT22;3647;48.792;9.802;2023-03-12T10:39:44;6.00;99.90
7212;DHT22;3647;48.792;9.802;2023-03-12T10:42:14;6.10;99.90
7212;DHT22;3647;48.792;9.802;2023-03-12T10:44:42;6.20;99.90
7212;DHT22;3647;48.792;9.802;2023-03-12T10:47:22;6.60;99.90
7212;DHT22;3647;48.792;9.802;2023-03-12T10:49:51;6.60;99.90
7212;DHT22;3647;48.792;9.802;2023-03-12T10:52:20;6.80;99.90
7212;DHT22;3647;48.792;9.802;2023-03-12T10:54:50;7.10;99.90
7212;DHT22;3647;48.792;9.802;2023-03-12T10:57:17;7.40;99.90
7212;DHT22;3647;48.792;9.802;2023-03-12T10:59:47;7.50;99.90
7212;DHT22;3647;48.792;9.802;2023-03-12T11:02:29;7.60;99.90
7212;DHT22;3647;48.792;9.802;2023-03-12T11:04:57;7.70;99.90
7212;DHT22;3647;48.792;9.802;2023-03-12T11:07:26;7.80;99.90
7212;DHT22;3647;48.792;9.802;2023-03-12T11:10:17;7.90;99.90
7212;DHT22;3647;48.792;9.802;2023-03-12T11:12:58;8.20;99.90
7212;DHT22;3647;48.792;9.802;2023-03-12T11:15:27;8.20;99.90
7212;DHT22;3647;48.792;9.802;2023-03-12T11:18:21;8.40;99.90
7212;DHT22;3647;48.792;9.802;2023-03-12T11:20:51;9.70;99.90
7212;DHT22;3647;48.792;9.802;2023-03-12T11:23:24;8.40;99.90
7212;DHT22;3647;48.792;9.802;2023-03-12T11:25:55;8.30;99.90
7212;DHT22;3647;48.792;9.802;2023-03-12T11:28:24;10.60;99.90
7212;DHT22;3647;48.792;9.802;2023-03-12T11:30:56;8.50;99.90
7212;DHT22;3647;48.792;9.802;2023-03-12T11:33:23;8.50;99.90
7212;DHT22;3647;48.792;9.802;2023-03-12T11:36:01;8.40;99.90
7212;DHT22;3647;48.792;9.802;2023-03-12T11:38:37;8.40;99.90
7212;DHT22;3647;48.792;9.802;2023-03-12T11:41:27;9.90;99.90
7212;DHT22;3647;48.792;9.802;2023-03-12T11:44:06;8.40;99.90
7212;DHT22;3647;48.792;9.802;2023-03-12T11:46:47;8.60;99.90
7212;DHT22;3647;48.792;9.802;2023-03-12T11:49:29;8.80;99.90
7212;DHT22;3647;48.792;9.802;2023-03-12T11:52:04;8.90;99.90
7212;DHT22;3647;48.792;9.802;2023-03-12T11:55:02;9.00;99.90
7212;DHT22;3647;48.792;9.802;2023-03-12T11:57:38;9.10;99.90
7212;DHT22;3647;48.792;9.802;2023-03-12T12:00:12;9.20;99.90
7212;DHT22;3647;48.792;9.802;2023-03-12T12:03:17;9.30;99.90
7212;DHT22;3647;48.792;9.802;2023-03-12T12:05:53;9.40;99.90
7212;DHT22;3647;48.792;9.802;2023-03-12T12:08:48;9.60;99.90
7212;DHT22;3647;48.792;9.802;2023-03-12T12:11:25;9.90;99.90
7212;DHT22;3647;48.792;9.802;2023-03-12T12:14:04;9.80;99.90
7212;DHT22;3647;48.792;9.802;2023-03-12T12:16:53;11.20;99.90
7212;DHT22;3647;48.792;9.802;2023-03-12T12:19:30;9.80;99.90
7212;DHT22;3647;48.792;9.802;2023-03-12T12:22:23;10.00;99.90
7212;DHT22;3647;48.792;9.802;2023-03-12T12:25:20;9.90;99.90
7212;DHT22;3647;48.792;9.802;2023-03-12T12:27:55;9.80;99.90
7212;DHT22;3647;48.792;9.802;2023-03-12T12:30:34;9.80;99.90
7212;DHT22;3647;48.792;9.802;2023-03-12T12:33:16;10.00;99.90
7212;DHT22;3647;48.792;9.802;2023-03-12T12:35:48;10.20;99.90
7212;DHT22;3647;48.792;9.802;2023-03-12T12:38:19;10.40;99.90
7212;DHT22;3647;48.792;9.802;2023-03-12T12:40:49;10.60;99.90
7212;DHT22;3647;48.792;9.802;2023-03-12T12:43:27;10.80;99.90
7212;DHT22;3647;48.792;9.802;2023-03-12T12:45:59;10.70;99.90
7212;DHT22;3647;48.792;9.802;2023-03-12T12:48:30;12.00;99.90
7212;DHT22;3647;48.792;9.802;2023-03-12T12:50:59;10.80;99.90
7212;DHT22;3647;48.792;9.802;2023-03-12T12:53:29;10.90;99.90
7212;DHT22;3647;48.792;9.802;2023-03-12T12:56:04;10.80;99.90
7212;DHT22;3647;48.792;9.802;2023-03-12T13:01:34;10.70;99.90
7212;DHT22;3647;48.792;9.802;2023-03-12T13:04:05;12.20;99.90
7212;DHT22;3647;48.792;9.802;2023-03-12T13:06:55;10.70;99.90
7212;DHT22;3647;48.792;9.802;2023-03-12T13:09:34;10.60;99.90
7212;DHT22;3647;48.792;9.802;2023-03-12T13:12:18;10.70;99.90
7212;DHT22;3647;48.792;9.802;2023-03-12T13:14:48;10.80;99.90
7212;DHT22;3647;48.792;9.802;2023-03-12T13:17:24;10.90;99.90
7212;DHT22;3647;48.792;9.802;2023-03-12T13:19:57;11.00;99.90
7212;DHT22;3647;48.792;9.802;2023-03-12T13:22:34;11.20;99.90
7212;DHT22;3647;48.792;9.802;2023-03-12T13:25:12;11.90;99.90
7212;DHT22;3647;48.792;9.802;2023-03-12T13:27:43;11.20;99.90
7212;DHT22;3647;48.792;9.802;2023-03-12T13:30:49;11.40;99.90
7212;DHT22;3647;48.792;9.802;2023-03-12T13:33:18;11.50;99.90
7212;DHT22;3647;48.792;9.802;2023-03-12T13:36:09;11.70;99.90
7212;DHT22;3647;48.792;9.802;2023-03-12T13:38:50;11.90;99.90
7212;DHT22;3647;48.792;9.802;2023-03-12T13:41:30;11.90;99.90
7212;DHT22;3647;48.792;9.802;2023-03-12T13:43:58;11.80;99.90
7212;DHT22;3647;48.792;9.802;2023-03-12T13:46:45;11.80;99.90
7212;DHT22;3647;48.792;9.802;2023-03-12T13:49:17;11.80;99.90
7212;DHT22;3647;48.792;9.802;2023-03-12T13:52:07;11.80;99.90
7212;DHT22;3647;48.792;9.802;2023-03-12T13:54:40;11.60;99.90
7212;DHT22;3647;48.792;9.802;2023-03-12T13:57:11;11.50;99.90
7212;DHT22;3647;48.792;9.802;2023-03-12T13:59:43;11.40;99.90
7212;DHT22;3647;48.792;9.802;2023-03-12T14:02:22;11.30;99.90
7212;DHT22;3647;48.792;9.802;2023-03-12T14:04:52;11.30;99.90
7212;DHT22;3647;48.792;9.802;2023-03-12T14:10:25;10.90;99.90
7212;DHT22;3647;48.792;9.802;2023-03-12T14:13:00;10.80;99.90
7212;DHT22;3647;48.792;9.802;2023-03-12T14:15:35;10.60;99.90
7212;DHT22;3647;48.792;9.802;2023-03-12T14:18:29;10.60;99.90
7212;DHT22;3647;48.792;9.802;2023-03-12T14:21:02;10.50;99.90
7212;DHT22;3647;48.792;9.802;2023-03-12T14:23:36;10.50;99.90
7212;DHT22;3647;48.792;9.802;2023-03-12T14:26:05;10.50;99.90
7212;DHT22;3647;48.792;9.802;2023-03-12T14:28:39;10.90;99.90
7212;DHT22;3647;48.792;9.802;2023-03-12T14:31:09;10.70;99.90
7212;DHT22;3647;48.792;9.802;2023-03-12T14:33:56;10.90;99.90
7212;DHT22;3647;48.792;9.802;2023-03-12T14:36:26;10.90;99.90
7212;DHT22;3647;48.792;9.802;2023-03-12T14:39:00;10.90;99.90
7212;DHT22;3647;48.792;9.802;2023-03-12T14:41:35;10.80;99.90
7212;DHT22;3647;48.792;9.802;2023-03-12T14:44:19;10.90;99.90
7212;DHT22;3647;48.792;9.802;2023-03-12T14:46:54;10.90;99.90
7212;DHT22;3647;48.792;9.802;2023-03-12T14:49:24;10.90;99.90
7212;DHT22;3647;48.792;9.802;2023-03-12T14:51:51;11.00;99.90
7212;DHT22;3647;48.792;9.802;2023-03-12T14:54:21;11.10;99.90
7212;DHT22;3647;48.792;9.802;2023-03-12T14:56:50;11.20;99.90
7212;DHT22;3647;48.792;9.802;2023-03-12T14:59:24;12.90;99.90
7212;DHT22;3647;48.792;9.802;2023-03-12T15:01:56;11.30;99.90
7212;DHT22;3647;48.792;9.802;2023-03-12T15:04:25;11.60;99.90
7212;DHT22;3647;48.792;9.802;2023-03-12T15:06:54;11.70;99.90
7212;DHT22;3647;48.792;9.802;2023-03-12T15:09:26;11.70;99.90
7212;DHT22;3647;48.792;9.802;2023-03-12T15:11:56;11.70;99.90
7212;DHT22;3647;48.792;9.802;2023-03-12T15:14:38;11.70;99.90
7212;DHT22;3647;48.792;9.802;2023-03-12T15:17:14;11.70;99.90
7212;DHT22;3647;48.792;9.802;2023-03-12T15:19:43;13.10;99.90
7212;DHT22;3647;48.792;9.802;2023-03-12T15:22:14;13.00;99.90
7212;DHT22;3647;48.792;9.802;2023-03-12T15:24:42;11.70;99.90
7212;DHT22;3647;48.792;9.802;2023-03-12T15:27:31;13.40;99.90
7212;DHT22;3647;48.792;9.802;2023-03-12T15:29:59;10.50;99.90
7212;DHT22;3647;48.792;9.802;2023-03-12T15:32:27;12.70;99.90
7212;DHT22;3647;48.792;9.802;2023-03-12T15:34:57;12.00;99.90
7212;DHT22;3647;48.792;9.802;2023-03-12T15:37:27;12.60;99.90
7212;DHT22;3647;48.792;9.802;2023-03-12T15:39:59;12.40;99.90
7212;DHT22;3647;48.792;9.802;2023-03-12T15:42:36;11.90;99.90
7212;DHT22;3647;48.792;9.802;2023-03-12T15:45:05;11.80;99.90
7212;DHT22;3647;48.792;9.802;2023-03-12T15:47:42;11.80;99.90
7212;DHT22;3647;48.792;9.802;2023-03-12T15:50:18;11.80;99.90
7212;DHT22;3647;48.792;9.802;2023-03-12T15:52:58;10.60;99.90
7212;DHT22;3647;48.792;9.802;2023-03-12T15:55:28;11.70;99.90
7212;DHT22;3647;48.792;9.802;2023-03-12T15:57:57;11.60;99.90
7212;DHT22;3647;48.792;9.802;2023-03-12T16:00:27;12.00;99.90
7212;DHT22;3647;48.792;9.802;2023-03-12T16:02:56;11.40;99.90
7212;DHT22;3647;48.792;9.802;2023-03-12T16:05:27;12.40;99.90
7212;DHT22;3647;48.792;9.802;2023-03-12T16:07:54;11.50;99.90
7212;DHT22;3647;48.792;9.802;2023-03-12T16:10:24;11.30;99.90
7212;DHT22;3647;48.792;9.802;2023-03-12T16:12:59;11.30;99.90
7212;DHT22;3647;48.792;9.802;2023-03-12T16:15:30;11.20;99.90
7212;DHT22;3647;48.792;9.802;2023-03-12T16:17:57;13.00;99.90
7212;DHT22;3647;48.792;9.802;2023-03-12T16:20:25;11.70;99.90
7212;DHT22;3647;48.792;9.802;2023-03-12T16:22:53;11.10;99.90
7212;DHT22;3647;48.792;9.802;2023-03-12T16:25:20;11.10;99.90
7212;DHT22;3647;48.792;9.802;2023-03-12T16:27:50;11.10;99.90
7212;DHT22;3647;48.792;9.802;2023-03-12T16:30:20;11.00;99.90
7212;DHT22;3647;48.792;9.802;2023-03-12T16:32:48;10.90;99.90
7212;DHT22;3647;48.792;9.802;2023-03-12T16:35:17;10.90;99.90
7212;DHT22;3647;48.792;9.802;2023-03-12T16:37:45;10.80;99.90
7212;DHT22;3647;48.792;9.802;2023-03-12T16:40:14;10.50;99.90
7212;DHT22;3647;48.792;9.802;2023-03-12T16:42:43;10.80;99.90
7212;DHT22;3647;48.792;9.802;2023-03-12T16:45:12;10.80;99.90
7212;DHT22;3647;48.792;9.802;2023-03-12T16:47:41;10.70;99.90
7212;DHT22;3647;48.792;9.802;2023-03-12T16:50:13;10.70;99.90
7212;DHT22;3647;48.792;9.802;2023-03-12T16:52:40;11.30;99.90
7212;DHT22;3647;48.792;9.802;2023-03-12T16:55:09;10.60;99.90
7212;DHT22;3647;48.792;9.802;2023-03-12T16:57:38;10.50;99.90
7212;DHT22;3647;48.792;9.802;2023-03-12T17:00:13;10.50;99.90
7212;DHT22;3647;48.792;9.802;2023-03-12T17:02:54;10.40;99.90
7212;DHT22;3647;48.792;9.802;2023-03-12T17:05:23;10.50;99.90
7212;DHT22;3647;48.792;9.802;2023-03-12T17:07:51;10.40;99.90
7212;DHT22;3647;48.792;9.802;2023-03-12T17:10:21;10.30;99.90
7212;DHT22;3647;48.792;9.802;2023-03-12T17:12:48;10.30;99.90
7212;DHT22;3647;48.792;9.802;2023-03-12T17:15:20;10.30;99.90
7212;DHT22;3647;48.792;9.802;2023-03-12T17:17:50;10.20;99.90
7212;DHT22;3647;48.792;9.802;2023-03-12T17:20:19;10.20;99.90
7212;DHT22;3647;48.792;9.802;2023-03-12T17:22:51;10.10;99.90
7212;DHT22;3647;48.792;9.802;2023-03-12T17:25:22;10.10;99.90
7212;DHT22;3647;48.792;9.802;2023-03-12T17:27:50;10.00;99.90
7212;DHT22;3647;48.792;9.802;2023-03-12T17:30:18;10.00;99.90
7212;DHT22;3647;48.792;9.802;2023-03-12T17:32:46;9.90;99.90
7212;DHT22;3647;48.792;9.802;2023-03-12T17:35:13;10.20;99.90
7212;DHT22;3647;48.792;9.802;2023-03-12T17:37:42;9.80;99.90
7212;DHT22;3647;48.792;9.802;2023-03-12T17:40:10;9.80;99.90
7212;DHT22;3647;48.792;9.802;2023-03-12T17:42:39;9.80;99.90
7212;DHT22;3647;48.792;9.802;2023-03-12T17:45:07;9.80;99.90
7212;DHT22;3647;48.792;9.802;2023-03-12T17:47:35;9.70;99.90
7212;DHT22;3647;48.792;9.802;2023-03-12T17:50:02;9.80;99.90
7212;DHT22;3647;48.792;9.802;2023-03-12T17:52:30;8.30;99.90
7212;DHT22;3647;48.792;9.802;2023-03-12T17:54:57;9.60;99.90
7212;DHT22;3647;48.792;9.802;2023-03-12T17:57:25;10.40;99.90
7212;DHT22;3647;48.792;9.802;2023-03-12T17:59:53;9.50;99.90
7212;DHT22;3647;48.792;9.802;2023-03-12T18:02:20;9.40;99.90
7212;DHT22;3647;48.792;9.802;2023-03-12T18:04:52;9.40;99.90
7212;DHT22;3647;48.792;9.802;2023-03-12T18:07:22;9.20;99.90
7212;DHT22;3647;48.792;9.802;2023-03-12T18:09:51;10.10;99.90
7212;DHT22;3647;48.792;9.802;2023-03-12T18:12:18;8.20;99.90
7212;DHT22;3647;48.792;9.802;2023-03-12T18:14:45;9.10;99.90
7212;DHT22;3647;48.792;9.802;2023-03-12T18:17:14;9.20;99.90
7212;DHT22;3647;48.792;9.802;2023-03-12T18:19:43;9.10;99.90
7212;DHT22;3647;48.792;9.802;2023-03-12T18:22:11;9.10;99.90
7212;DHT22;3647;48.792;9.802;2023-03-12T18:24:39;9.90;99.90
7212;DHT22;3647;48.792;9.802;2023-03-12T18:27:06;8.90;99.90
7212;DHT22;3647;48.792;9.802;2023-03-12T18:29:33;10.50;99.90
7212;DHT22;3647;48.792;9.802;2023-03-12T18:32:01;9.40;99.90
7212;DHT22;3647;48.792;9.802;2023-03-12T18:34:30;8.90;99.90
7212;DHT22;3647;48.792;9.802;2023-03-12T18:36:57;8.80;99.90
7212;DHT22;3647;48.792;9.802;2023-03-12T18:39:25;8.80;99.90
7212;DHT22;3647;48.792;9.802;2023-03-12T18:41:53;8.70;99.90
7212;DHT22;3647;48.792;9.802;2023-03-12T18:44:21;8.80;99.90
7212;DHT22;3647;48.792;9.802;2023-03-12T18:46:48;8.70;99.90
7212;DHT22;3647;48.792;9.802;2023-03-12T18:49:16;9.90;99.90
7212;DHT22;3647;48.792;9.802;2023-03-12T18:51:45;8.70;99.90
7212;DHT22;3647;48.792;9.802;2023-03-12T18:54:19;8.70;99.90
7212;DHT22;3647;48.792;9.802;2023-03-12T18:56:45;8.70;99.90
7212;DHT22;3647;48.792;9.802;2023-03-12T18:59:12;8.70;99.90
7212;DHT22;3647;48.792;9.802;2023-03-12T19:01:40;8.70;99.90
7212;DHT22;3647;48.792;9.802;2023-03-12T19:04:08;10.50;99.90
7212;DHT22;3647;48.792;9.802;2023-03-12T19:06:35;8.70;99.90
7212;DHT22;3647;48.792;9.802;2023-03-12T19:09:05;8.70;99.90
7212;DHT22;3647;48.792;9.802;2023-03-12T19:11:36;8.70;99.90
7212;DHT22;3647;48.792;9.802;2023-03-12T19:14:17;8.70;99.90
7212;DHT22;3647;48.792;9.802;2023-03-12T19:16:43;8.70;99.90
7212;DHT22;3647;48.792;9.802;2023-03-12T19:19:10;8.70;99.90
7212;DHT22;3647;48.792;9.802;2023-03-12T19:21:37;9.60;99.90
7212;DHT22;3647;48.792;9.802;2023-03-12T19:24:06;9.90;99.90
7212;DHT22;3647;48.792;9.802;2023-03-12T19:26:33;8.90;99.90
7212;DHT22;3647;48.792;9.802;2023-03-12T19:29:00;9.00;99.90
7212;DHT22;3647;48.792;9.802;2023-03-12T19:31:27;8.40;99.90
7212;DHT22;3647;48.792;9.802;2023-03-12T19:33:53;10.90;99.90
7212;DHT22;3647;48.792;9.802;2023-03-12T19:36:20;9.00;99.90
7212;DHT22;3647;48.792;9.802;2023-03-12T19:38:47;10.90;99.90
7212;DHT22;3647;48.792;9.802;2023-03-12T19:41:17;9.00;99.90
7212;DHT22;3647;48.792;9.802;2023-03-12T19:43:44;8.90;99.90
7212;DHT22;3647;48.792;9.802;2023-03-12T19:46:11;8.90;99.90
7212;DHT22;3647;48.792;9.802;2023-03-12T19:48:39;8.90;99.90
7212;DHT22;3647;48.792;9.802;2023-03-12T19:51:10;8.90;99.90
7212;DHT22;3647;48.792;9.802;2023-03-12T19:53:46;9.80;99.90
7212;DHT22;3647;48.792;9.802;2023-03-12T19:56:13;9.00;99.90
7212;DHT22;3647;48.792;9.802;2023-03-12T20:01:37;9.00;99.90
7212;DHT22;3647;48.792;9.802;2023-03-12T20:04:09;9.10;99.90
7212;DHT22;3647;48.792;9.802;2023-03-12T20:09:31;9.30;99.90
7212;DHT22;3647;48.792;9.802;2023-03-12T20:12:01;9.40;99.90
7212;DHT22;3647;48.792;9.802;2023-03-12T20:14:29;9.30;99.90
7212;DHT22;3647;48.792;9.802;2023-03-12T20:16:58;9.30;99.90
7212;DHT22;3647;48.792;9.802;2023-03-12T20:19:25;9.50;99.90
7212;DHT22;3647;48.792;9.802;2023-03-12T20:21:51;9.30;99.90
7212;DHT22;3647;48.792;9.802;2023-03-12T20:24:19;11.00;99.90
7212;DHT22;3647;48.792;9.802;2023-03-12T20:26:46;9.60;99.90
7212;DHT22;3647;48.792;9.802;2023-03-12T20:29:13;11.10;99.90
7212;DHT22;3647;48.792;9.802;2023-03-12T20:31:41;9.30;99.90
7212;DHT22;3647;48.792;9.802;2023-03-12T20:34:09;10.10;99.90
7212;DHT22;3647;48.792;9.802;2023-03-12T20:36:36;7.70;99.90
7212;DHT22;3647;48.792;9.802;2023-03-12T20:39:03;9.30;99.90
7212;DHT22;3647;48.792;9.802;2023-03-12T20:41:30;9.30;99.90
7212;DHT22;3647;48.792;9.802;2023-03-12T20:43:58;11.10;99.90
7212;DHT22;3647;48.792;9.802;2023-03-12T20:46:26;9.30;99.90
7212;DHT22;3647;48.792;9.802;2023-03-12T20:48:53;11.20;99.90
7212;DHT22;3647;48.792;9.802;2023-03-12T20:51:21;11.40;99.90
7212;DHT22;3647;48.792;9.802;2023-03-12T20:53:49;9.90;99.90
7212;DHT22;3647;48.792;9.802;2023-03-12T20:56:16;9.50;99.90
7212;DHT22;3647;48.792;9.802;2023-03-12T20:58:43;9.50;99.90
7212;DHT22;3647;48.792;9.802;2023-03-12T21:01:10;9.50;99.90
7212;DHT22;3647;48.792;9.802;2023-03-12T21:03:36;9.50;99.90
7212;DHT22;3647;48.792;9.802;2023-03-12T21:06:04;10.10;99.90
7212;DHT22;3647;48.792;9.802;2023-03-12T21:08:32;9.50;99.90
7212;DHT22;3647;48.792;9.802;2023-03-12T21:11:00;9.60;99.90
7212;DHT22;3647;48.792;9.802;2023-03-12T21:13:27;9.60;99.90
7212;DHT22;3647;48.792;9.802;2023-03-12T21:15:55;9.60;99.90
7212;DHT22;3647;48.792;9.802;2023-03-12T21:18:23;9.70;99.90
7212;DHT22;3647;48.792;9.802;2023-03-12T21:21:06;9.70;99.90
7212;DHT22;3647;48.792;9.802;2023-03-12T21:23:40;9.70;99.90
7212;DHT22;3647;48.792;9.802;2023-03-12T21:26:07;11.40;99.90
7212;DHT22;3647;48.792;9.802;2023-03-12T21:28:36;10.50;99.90
7212;DHT22;3647;48.792;9.802;2023-03-12T21:31:06;10.60;99.90
7212;DHT22;3647;48.792;9.802;2023-03-12T21:33:36;9.70;99.90
7212;DHT22;3647;48.792;9.802;2023-03-12T21:36:09;9.80;99.90
7212;DHT22;3647;48.792;9.802;2023-03-12T21:39:00;8.90;99.90
7212;DHT22;3647;48.792;9.802;2023-03-12T21:41:27;9.80;99.90
7212;DHT22;3647;48.792;9.802;2023-03-12T21:43:55;8.50;99.90
7212;DHT22;3647;48.792;9.802;2023-03-12T21:46:27;9.20;99.90
7212;DHT22;3647;48.792;9.802;2023-03-12T21:49:14;10.50;99.90
7212;DHT22;3647;48.792;9.802;2023-03-12T21:51:44;9.70;99.90
7212;DHT22;3647;48.792;9.802;2023-03-12T21:54:15;9.70;99.90
7212;DHT22;3647;48.792;9.802;2023-03-12T21:56:49;9.70;99.90
7212;DHT22;3647;48.792;9.802;2023-03-12T21:59:17;9.70;99.90
7212;DHT22;3647;48.792;9.802;2023-03-12T22:04:19;9.60;99.90
7212;DHT22;3647;48.792;9.802;2023-03-12T22:06:47;9.60;99.90
7212;DHT22;3647;48.792;9.802;2023-03-12T22:09:16;9.60;99.90
7212;DHT22;3647;48.792;9.802;2023-03-12T22:11:46;9.60;99.90
7212;DHT22;3647;48.792;9.802;2023-03-12T22:14:13;9.70;99.90
7212;DHT22;3647;48.792;9.802;2023-03-12T22:16:42;9.60;99.90
7212;DHT22;3647;48.792;9.802;2023-03-12T22:19:10;9.60;99.90
